Time;durP1;ratioP1;P1;durP2;ratioP2;P2;SDS_P1;SDS_P2;PMS_P1;PMS_P2;Temp;Humidity;BMP_temperature;BMP_pressure;BME280_temperature;BME280_humidity;BME280_pressure;Samples;Min_cycle;Max_cycle;Signal;HPM_P1;HPM_P2
2023/08/09 00:01:03;;;;;;;0.30;0.30;;;;;;;18.95;72.50;98760.06;4895277;29;20057;-82
2023/08/09 00:03:33;;;;;;;0.30;0.30;;;;;;;18.93;72.53;98767.75;4897310;29;20060;-82
2023/08/09 00:06:00;;;;;;;0.30;0.30;;;;;;;18.93;72.20;98762.28;4898850;29;20096;-82
2023/08/09 00:08:30;;;;;;;0.30;0.30;;;;;;;18.97;72.20;98766.03;4899033;29;20041;-81
2023/08/09 00:10:57;;;;;;;0.30;0.30;;;;;;;18.97;72.16;98762.50;4899000;29;20056;-82
2023/08/09 00:13:24;;;;;;;0.30;0.30;;;;;;;18.98;72.03;98767.66;4898939;29;20088;-83
2023/08/09 00:15:52;;;;;;;0.30;0.30;;;;;;;18.95;72.08;98768.25;4898190;29;20059;-82
2023/08/09 00:18:19;;;;;;;0.30;0.30;;;;;;;18.97;72.15;98767.97;4898790;29;20102;-82
2023/08/09 00:20:47;;;;;;;0.30;0.30;;;;;;;18.94;72.23;98769.41;4881645;29;20103;-82
2023/08/09 00:23:18;;;;;;;0.30;0.30;;;;;;;18.89;72.51;98763.19;4907055;29;20057;-82
2023/08/09 00:25:45;;;;;;;0.30;0.30;;;;;;;18.84;72.92;98775.06;4902588;29;20056;-83
2023/08/09 00:28:12;;;;;;;0.30;0.30;;;;;;;18.73;73.11;98763.47;4898527;29;20644;-83
2023/08/09 00:30:39;;;;;;;0.30;0.30;;;;;;;18.72;73.53;98767.34;4898065;29;20056;-83
2023/08/09 00:33:08;;;;;;;0.30;0.30;;;;;;;18.67;73.74;98763.91;4898661;29;20333;-82
2023/08/09 00:35:35;;;;;;;0.30;0.30;;;;;;;18.62;73.79;98762.88;4881353;29;20056;-81
2023/08/09 00:38:03;;;;;;;0.30;0.30;;;;;;;18.56;74.21;98760.53;4881230;29;20143;-83
2023/08/09 00:40:30;;;;;;;0.30;0.30;;;;;;;18.51;74.39;98766.09;4881541;29;20543;-82
2023/08/09 00:42:57;;;;;;;0.30;0.30;;;;;;;18.47;74.83;98754.97;4897117;29;20067;-83
2023/08/09 00:45:24;;;;;;;0.30;0.30;;;;;;;18.44;75.03;98757.50;4882162;29;20066;-84
2023/08/09 00:47:52;;;;;;;0.30;0.30;;;;;;;18.39;75.14;98752.94;4890428;29;20060;-81
2023/08/09 00:50:19;;;;;;;0.30;0.30;;;;;;;18.35;75.14;98757.38;4899385;29;20472;-82
2023/08/09 00:52:51;;;;;;;0.30;0.30;;;;;;;18.34;75.16;98764.78;4897975;29;20053;-82
2023/08/09 00:55:18;;;;;;;0.30;0.30;;;;;;;18.34;75.22;98762.03;4897018;29;20070;-84
2023/08/09 00:57:46;;;;;;;0.30;0.30;;;;;;;18.35;75.11;98760.13;4897845;29;20044;-82
2023/08/09 01:00:14;;;;;;;0.28;0.28;;;;;;;18.35;75.03;98765.59;4893799;29;20119;-82
2023/08/09 01:02:41;;;;;;;0.30;0.30;;;;;;;18.35;75.03;98763.66;4881168;29;20045;-82
2023/08/09 01:05:11;;;;;;;0.30;0.30;;;;;;;18.39;75.09;98769.34;4897840;29;20056;-83
2023/08/09 01:07:44;;;;;;;0.30;0.30;;;;;;;18.44;74.88;98771.19;4865681;29;20060;-82
2023/08/09 01:10:15;;;;;;;0.20;0.20;;;;;;;18.40;74.93;98765.50;4897832;29;20059;-81
2023/08/09 01:12:52;;;;;;;0.30;0.30;;;;;;;18.36;75.14;98773.50;4897723;29;20568;-82
2023/08/09 01:15:20;;;;;;;0.30;0.30;;;;;;;18.32;75.28;98772.47;4896767;29;20048;-84
2023/08/09 01:17:48;;;;;;;0.30;0.30;;;;;;;18.26;75.45;98764.69;4865401;29;20436;-82
2023/08/09 01:20:17;;;;;;;0.30;0.30;;;;;;;18.21;75.84;98772.97;4897721;29;20068;-82
2023/08/09 01:22:49;;;;;;;0.30;0.30;;;;;;;18.14;76.20;98770.63;4896191;29;20401;-83
2023/08/09 01:25:16;;;;;;;0.30;0.30;;;;;;;18.09;76.39;98768.78;4881151;29;20117;-83
2023/08/09 01:27:48;;;;;;;0.30;0.30;;;;;;;18.04;76.88;98778.97;4896210;29;20098;-82
2023/08/09 01:30:18;;;;;;;0.30;0.30;;;;;;;18.00;77.02;98776.03;4880700;29;20135;-82
2023/08/09 01:32:46;;;;;;;0.30;0.30;;;;;;;17.98;77.10;98773.59;4897403;29;20048;-82
2023/08/09 01:35:13;;;;;;;0.30;0.30;;;;;;;17.94;77.36;98769.84;4880155;29;20048;-82
2023/08/09 01:37:54;;;;;;;0.30;0.30;;;;;;;17.93;77.45;98764.69;4880296;29;20056;-82
2023/08/09 01:40:22;;;;;;;0.30;0.30;;;;;;;17.91;77.46;98761.44;4895978;29;20059;-83
2023/08/09 01:42:51;;;;;;;0.30;0.30;;;;;;;17.95;77.08;98765.19;4881420;29;20559;-83
2023/08/09 01:45:29;;;;;;;0.30;0.30;;;;;;;17.97;76.66;98769.25;4897756;29;20531;-82
2023/08/09 01:47:56;;;;;;;0.30;0.30;;;;;;;17.98;76.29;98767.34;4880851;29;20056;-82
2023/08/09 01:50:25;;;;;;;0.30;0.30;;;;;;;18.00;75.91;98773.28;4898122;29;20144;-82
2023/08/09 01:52:56;;;;;;;0.30;0.30;;;;;;;17.96;75.58;98772.28;4886187;29;20116;-83
2023/08/09 01:55:27;;;;;;;0.30;0.30;;;;;;;17.92;75.70;98776.72;4887996;29;20090;-82
2023/08/09 01:57:55;;;;;;;0.30;0.30;;;;;;;17.89;75.89;98780.84;4886837;29;20060;-82
2023/08/09 02:00:23;;;;;;;0.30;0.30;;;;;;;17.86;75.77;98783.38;4880175;29;20516;-82
2023/08/09 02:02:52;;;;;;;0.30;0.30;;;;;;;17.80;76.07;98784.53;4896752;29;20058;-82
2023/08/09 02:05:22;;;;;;;0.30;0.30;;;;;;;17.73;76.27;98774.81;4897047;29;20424;-81
2023/08/09 02:07:50;;;;;;;0.30;0.30;;;;;;;17.68;76.61;98765.88;4895962;29;20573;-83
2023/08/09 02:10:19;;;;;;;0.30;0.30;;;;;;;17.70;76.66;98766.41;4880228;29;20152;-82
2023/08/09 02:12:50;;;;;;;0.30;0.30;;;;;;;17.66;76.48;98773.56;4880685;29;20135;-82
2023/08/09 02:15:20;;;;;;;0.30;0.30;;;;;;;17.67;76.46;98773.28;4880422;29;20056;-81
2023/08/09 02:17:49;;;;;;;0.30;0.30;;;;;;;17.65;76.49;98775.47;4896875;29;20045;-81
2023/08/09 02:20:19;;;;;;;0.30;0.30;;;;;;;17.62;76.25;98784.22;4896852;29;20067;-82
2023/08/09 02:22:48;;;;;;;0.32;0.32;;;;;;;17.62;76.24;98778.78;4896761;29;20049;-82
2023/08/09 02:25:16;;;;;;;0.35;0.35;;;;;;;17.56;76.51;98779.97;4879307;29;20512;-81
2023/08/09 02:27:43;;;;;;;0.30;0.30;;;;;;;17.50;76.92;98790.16;4896803;29;20517;-82
2023/08/09 02:30:10;;;;;;;0.38;0.38;;;;;;;17.49;77.09;98795.91;4880186;29;20078;-83
2023/08/09 02:32:37;;;;;;;0.30;0.30;;;;;;;17.44;77.02;98788.59;4880164;29;20088;-81
2023/08/09 02:35:06;;;;;;;0.30;0.30;;;;;;;17.43;77.29;98786.97;4896647;29;20049;-82
2023/08/09 02:37:34;;;;;;;0.40;0.40;;;;;;;17.38;77.25;98794.44;4896699;29;20048;-82
2023/08/09 02:40:04;;;;;;;0.30;0.30;;;;;;;17.35;77.42;98797.75;4879802;29;20052;-82
2023/08/09 02:42:39;;;;;;;0.30;0.30;;;;;;;17.30;77.72;98793.97;4896996;29;20108;-82
2023/08/09 02:45:09;;;;;;;0.30;0.30;;;;;;;17.28;77.59;98790.72;4883132;29;20059;-83
2023/08/09 02:47:37;;;;;;;0.30;0.30;;;;;;;17.26;77.60;98787.47;4885086;29;20057;-82
2023/08/09 02:50:06;;;;;;;0.30;0.30;;;;;;;17.24;77.68;98789.72;4905326;29;20053;-81
2023/08/09 02:52:36;;;;;;;0.35;0.35;;;;;;;17.29;77.63;98797.00;4917837;29;20043;-82
2023/08/09 02:55:06;;;;;;;0.30;0.30;;;;;;;17.29;77.49;98794.25;4901003;29;20055;-82
2023/08/09 02:57:34;;;;;;;0.40;0.40;;;;;;;17.28;77.45;98793.47;4900678;29;20108;-81
2023/08/09 03:00:06;;;;;;;0.40;0.40;;;;;;;17.25;77.32;98785.06;4867424;29;20052;-82
2023/08/09 03:02:33;;;;;;;0.30;0.30;;;;;;;17.33;77.31;98792.59;4896409;29;20072;-82
2023/08/09 03:05:03;;;;;;;0.30;0.30;;;;;;;17.33;76.86;98782.47;4879308;29;20061;-81
2023/08/09 03:07:33;;;;;;;0.30;0.30;;;;;;;17.35;76.68;98789.56;4879608;29;20048;-82
2023/08/09 03:10:03;;;;;;;0.30;0.30;;;;;;;17.40;77.06;98790.31;4878828;29;20428;-81
2023/08/09 03:12:30;;;;;;;0.30;0.30;;;;;;;17.45;76.53;98784.78;4879556;29;20070;-83
2023/08/09 03:14:58;;;;;;;0.30;0.30;;;;;;;17.39;76.26;98780.47;4895560;29;20147;-82
2023/08/09 03:17:26;;;;;;;0.30;0.30;;;;;;;17.46;76.38;98796.50;4878909;29;20163;-82
2023/08/09 03:19:53;;;;;;;0.30;0.30;;;;;;;17.46;76.15;98778.19;4895208;29;20061;-81
2023/08/09 03:22:20;;;;;;;0.38;0.38;;;;;;;17.51;76.02;98789.03;4895039;29;20398;-82
2023/08/09 03:24:47;;;;;;;0.30;0.30;;;;;;;17.56;75.88;98782.69;4895516;29;20060;-81
2023/08/09 03:27:14;;;;;;;0.38;0.38;;;;;;;17.58;75.56;98777.78;4878864;29;20136;-81
2023/08/09 03:29:43;;;;;;;0.30;0.30;;;;;;;17.60;75.21;98777.44;4878715;29;20116;-83
2023/08/09 03:32:10;;;;;;;0.30;0.30;;;;;;;17.67;75.39;98776.00;4879237;29;20045;-81
2023/08/09 03:34:37;;;;;;;0.30;0.30;;;;;;;17.69;75.18;98778.41;4895850;29;20452;-81
2023/08/09 03:37:04;;;;;;;0.30;0.30;;;;;;;17.76;75.05;98785.13;4880438;29;20469;-83
2023/08/09 03:39:31;;;;;;;0.30;0.30;;;;;;;17.80;74.61;98784.53;4859358;29;20086;-82
2023/08/09 03:41:58;;;;;;;0.30;0.30;;;;;;;17.86;74.50;98783.38;4844442;29;20056;-82
2023/08/09 03:44:27;;;;;;;0.30;0.30;;;;;;;17.84;74.03;98778.19;4860178;29;20057;-81
2023/08/09 03:46:57;;;;;;;0.30;0.30;;;;;;;17.90;73.78;98781.66;4859627;29;20060;-83
2023/08/09 03:49:26;;;;;;;0.30;0.30;;;;;;;17.98;73.80;98781.00;4866869;29;20053;-82
2023/08/09 03:51:53;;;;;;;0.40;0.40;;;;;;;18.03;73.54;98780.91;4867066;29;20053;-82
2023/08/09 03:54:21;;;;;;;0.30;0.30;;;;;;;18.08;73.38;98774.53;4859660;29;20125;-82
2023/08/09 03:56:48;;;;;;;0.40;0.40;;;;;;;18.19;72.80;98775.97;4859529;29;20049;-82
2023/08/09 03:59:15;;;;;;;0.30;0.30;;;;;;;18.16;72.65;98761.00;4859713;29;20060;-82
2023/08/09 04:01:43;;;;;;;0.30;0.30;;;;;;;18.35;72.18;98780.06;4859041;29;20081;-82
2023/08/09 04:04:10;;;;;;;0.30;0.30;;;;;;;18.49;71.99;98779.28;4859005;29;20153;-83
2023/08/09 04:06:37;;;;;;;0.38;0.38;;;;;;;18.56;71.68;98777.78;4858762;29;20109;-81
2023/08/09 04:09:07;;;;;;;0.40;0.40;;;;;;;18.69;71.23;98773.41;4858843;29;20102;-83
2023/08/09 04:11:34;;;;;;;0.30;0.30;;;;;;;18.79;70.92;98780.63;4890405;29;20064;-82
2023/08/09 04:14:03;;;;;;;0.30;0.30;;;;;;;18.84;70.55;98772.34;4874558;29;20048;-83
2023/08/09 04:16:33;;;;;;;0.30;0.30;;;;;;;18.90;70.06;98784.78;4877403;29;20053;-81
2023/08/09 04:19:00;;;;;;;0.30;0.30;;;;;;;18.84;69.88;98764.13;4873238;29;20066;-82
2023/08/09 04:21:27;;;;;;;0.30;0.30;;;;;;;19.00;69.44;98773.63;4869144;29;20048;-81
2023/08/09 04:23:55;;;;;;;0.30;0.30;;;;;;;19.11;69.39;98778.88;4871785;29;20077;-81
2023/08/09 04:26:22;;;;;;;0.30;0.30;;;;;;;19.22;68.92;98791.25;4859931;29;20049;-80
2023/08/09 04:28:49;;;;;;;0.30;0.30;;;;;;;19.16;68.65;98786.97;4888195;29;20088;-83
2023/08/09 04:31:18;;;;;;;0.30;0.30;;;;;;;19.28;68.57;98793.53;4879176;29;20075;-81
2023/08/09 04:33:49;;;;;;;0.35;0.35;;;;;;;19.41;68.67;98785.59;4897103;29;20049;-83
2023/08/09 04:36:18;;;;;;;0.30;0.30;;;;;;;19.55;68.32;98788.31;4893477;29;20063;-82
2023/08/09 04:38:46;;;;;;;0.38;0.38;;;;;;;19.61;68.45;98790.63;4873505;29;20141;-81
2023/08/09 04:41:13;;;;;;;0.30;0.30;;;;;;;19.73;68.05;98797.53;4887490;29;20053;-82
2023/08/09 04:43:43;;;;;;;0.30;0.30;;;;;;;19.87;67.60;98792.78;4888570;29;20048;-83
2023/08/09 04:46:12;;;;;;;0.32;0.32;;;;;;;19.90;67.52;98798.47;4895120;29;20057;-83
2023/08/09 04:48:41;;;;;;;0.30;0.30;;;;;;;19.89;67.25;98794.09;4878315;29;20488;-81
2023/08/09 04:51:10;;;;;;;0.30;0.30;;;;;;;19.89;67.28;98798.75;4886746;29;20080;-84
2023/08/09 04:53:37;;;;;;;0.38;0.38;;;;;;;19.86;67.51;98796.66;4881863;29;20088;-82
2023/08/09 04:56:04;;;;;;;0.30;0.30;;;;;;;19.86;67.51;98799.38;4892417;29;20112;-82
2023/08/09 04:58:32;;;;;;;0.30;0.30;;;;;;;19.87;67.60;98795.50;4889055;29;20139;-82
2023/08/09 05:00:59;;;;;;;0.30;0.30;;;;;;;19.95;67.44;98791.22;4891198;29;20060;-83
2023/08/09 05:03:26;;;;;;;0.30;0.30;;;;;;;20.00;67.01;98794.63;4853202;29;20072;-84
2023/08/09 05:05:54;;;;;;;0.30;0.30;;;;;;;19.94;66.95;98782.19;4862906;29;20113;-82
2023/08/09 05:08:21;;;;;;;0.30;0.30;;;;;;;19.92;67.06;98790.72;4881154;29;20045;-82
2023/08/09 05:10:50;;;;;;;0.30;0.30;;;;;;;19.98;67.24;98798.81;4893739;29;20075;-83
2023/08/09 05:13:20;;;;;;;0.30;0.30;;;;;;;19.99;67.16;98798.50;4886543;29;20064;-82
2023/08/09 05:15:47;;;;;;;0.30;0.30;;;;;;;20.00;67.12;98799.31;4861586;29;20517;-83
2023/08/09 05:18:14;;;;;;;0.30;0.30;;;;;;;20.03;67.43;98799.50;4879372;29;20061;-83
2023/08/09 05:20:41;;;;;;;0.35;0.35;;;;;;;20.18;67.21;98803.81;4897232;29;20056;-81
2023/08/09 05:23:08;;;;;;;0.30;0.30;;;;;;;20.36;66.81;98810.19;4897643;29;20104;-82
2023/08/09 05:25:41;;;;;;;0.30;0.30;;;;;;;20.47;66.16;98808.00;4891677;29;20044;-82
2023/08/09 05:28:08;;;;;;;0.30;0.30;;;;;;;20.43;66.59;98816.00;4892581;29;20469;-82
2023/08/09 05:30:35;;;;;;;0.30;0.30;;;;;;;20.35;66.72;98820.31;4880456;29;20526;-82
2023/08/09 05:33:05;;;;;;;0.30;0.30;;;;;;;20.41;66.66;98829.25;4897524;29;20053;-83
2023/08/09 05:35:32;;;;;;;0.30;0.30;;;;;;;20.53;66.43;98831.38;4897193;29;20060;-81
2023/08/09 05:38:02;;;;;;;0.30;0.30;;;;;;;20.57;65.98;98829.69;4897175;29;20056;-81
2023/08/09 05:40:29;;;;;;;0.30;0.30;;;;;;;20.60;66.15;98833.72;4898207;29;20063;-82
2023/08/09 05:42:57;;;;;;;0.30;0.30;;;;;;;20.76;65.81;98819.28;4898828;29;20048;-82
2023/08/09 05:45:24;;;;;;;0.32;0.32;;;;;;;20.98;65.37;98823.88;4898018;29;20148;-82
2023/08/09 05:47:52;;;;;;;0.40;0.40;;;;;;;20.99;65.13;98820.03;4896960;29;20457;-81
2023/08/09 05:50:19;;;;;;;0.40;0.40;;;;;;;21.15;64.55;98812.16;4892853;29;20068;-83
2023/08/09 05:52:46;;;;;;;0.30;0.30;;;;;;;21.30;63.72;98815.59;4874677;29;20698;-83
2023/08/09 05:55:13;;;;;;;0.30;0.30;;;;;;;21.38;63.53;98818.38;4884124;29;20504;-82
2023/08/09 05:57:42;;;;;;;0.30;0.30;;;;;;;21.36;63.51;98819.78;4877232;29;20059;-82
2023/08/09 06:00:15;;;;;;;0.30;0.30;;;;;;;21.40;63.24;98818.06;4877766;29;20060;-82
2023/08/09 06:02:44;;;;;;;0.40;0.40;;;;;;;21.57;63.01;98812.59;4862475;29;20069;-82
2023/08/09 06:05:25;;;;;;;0.30;0.30;;;;;;;21.79;62.13;98810.81;4876804;29;20057;-82
2023/08/09 06:07:53;;;;;;;0.30;0.30;;;;;;;22.16;61.25;98816.75;4848518;29;20057;-81
2023/08/09 06:10:24;;;;;;;0.30;0.30;;;;;;;22.42;59.96;98806.53;4878515;29;20525;-82
2023/08/09 06:12:52;;;;;;;0.30;0.30;;;;;;;22.65;59.37;98817.31;4890943;29;20048;-81
2023/08/09 06:15:21;;;;;;;0.30;0.30;;;;;;;22.67;59.74;98815.03;4896544;29;20084;-82
2023/08/09 06:17:48;;;;;;;0.30;0.30;;;;;;;22.61;59.34;98810.84;4896425;29;20053;-83
2023/08/09 06:20:16;;;;;;;0.30;0.30;;;;;;;22.52;59.69;98821.06;4896694;29;20504;-83
2023/08/09 06:22:44;;;;;;;0.30;0.30;;;;;;;22.66;59.84;98814.25;4896364;29;20049;-82
2023/08/09 06:25:11;;;;;;;0.30;0.30;;;;;;;22.83;59.06;98823.53;4895270;29;20053;-82
2023/08/09 06:27:39;;;;;;;0.30;0.30;;;;;;;22.94;58.78;98828.34;4861167;29;20053;-82
2023/08/09 06:30:15;;;;;;;0.30;0.30;;;;;;;23.07;58.46;98829.28;4889966;29;20152;-81
2023/08/09 06:32:45;;;;;;;0.20;0.20;;;;;;;23.11;58.50;98826.69;4853633;29;20048;-82
2023/08/09 06:35:18;;;;;;;0.30;0.30;;;;;;;23.20;58.06;98830.19;4872195;29;20054;-82
2023/08/09 06:37:50;;;;;;;0.30;0.30;;;;;;;23.04;57.83;98835.47;4868505;29;20060;-82
2023/08/09 06:40:22;;;;;;;0.30;0.30;;;;;;;23.00;58.02;98839.22;4887926;29;20661;-82
2023/08/09 06:42:49;;;;;;;0.30;0.30;;;;;;;23.00;58.33;98823.50;4895121;29;20566;-83
2023/08/09 06:45:22;;;;;;;0.30;0.30;;;;;;;23.15;57.65;98827.63;4876611;29;20056;-83
2023/08/09 06:47:52;;;;;;;0.30;0.30;;;;;;;23.12;57.35;98839.31;4894895;29;20076;-83
2023/08/09 06:50:19;;;;;;;0.30;0.30;;;;;;;23.02;57.20;98836.94;4878342;29;20056;-81
2023/08/09 06:52:47;;;;;;;0.30;0.30;;;;;;;23.04;56.91;98842.91;4893020;29;20492;-84
2023/08/09 06:55:17;;;;;;;0.30;0.30;;;;;;;22.97;56.41;98828.84;4898221;29;20059;-83
2023/08/09 06:57:45;;;;;;;0.30;0.30;;;;;;;23.00;56.32;98841.97;4892052;29;20226;-85
2023/08/09 07:00:16;;;;;;;0.30;0.30;;;;;;;22.80;56.65;98833.25;4891428;29;20057;-82
2023/08/09 07:02:47;;;;;;;0.30;0.30;;;;;;;22.90;56.56;98852.16;4877504;29;20155;-81
2023/08/09 07:05:18;;;;;;;0.30;0.30;;;;;;;23.08;56.64;98855.66;4861950;29;20055;-82
2023/08/09 07:07:47;;;;;;;0.30;0.30;;;;;;;23.26;55.46;98850.88;4890079;29;20140;-81
2023/08/09 07:10:17;;;;;;;0.30;0.30;;;;;;;23.34;54.56;98850.00;4890060;29;20072;-82
2023/08/09 07:12:44;;;;;;;0.30;0.30;;;;;;;23.61;53.88;98847.91;4884100;29;20559;-82
2023/08/09 07:15:12;;;;;;;0.30;0.30;;;;;;;23.37;53.82;98845.81;4894634;29;20059;-82
2023/08/09 07:17:39;;;;;;;0.30;0.30;;;;;;;23.31;54.36;98850.69;4889643;29;20045;-80
2023/08/09 07:20:11;;;;;;;0.30;0.30;;;;;;;23.51;54.31;98856.56;4894092;29;20048;-82
2023/08/09 07:22:39;;;;;;;0.38;0.38;;;;;;;23.85;53.49;98849.22;4893839;29;20056;-83
2023/08/09 07:25:10;;;;;;;0.30;0.30;;;;;;;24.13;52.61;98844.78;4887670;29;20053;-82
2023/08/09 07:27:48;;;;;;;0.30;0.30;;;;;;;24.41;52.29;98847.75;4887689;29;20546;-81
2023/08/09 07:30:16;;;;;;;0.30;0.30;;;;;;;24.31;52.70;98852.88;4888510;29;20076;-82
2023/08/09 07:32:44;;;;;;;0.30;0.30;;;;;;;24.22;52.47;98844.69;4874574;29;20056;-82
2023/08/09 07:35:12;;;;;;;0.30;0.30;;;;;;;24.19;52.84;98853.63;4896735;29;20061;-83
2023/08/09 07:37:41;;;;;;;0.30;0.30;;;;;;;24.38;52.49;98847.59;4892852;29;20132;-81
2023/08/09 07:40:13;;;;;;;0.30;0.30;;;;;;;24.58;51.64;98844.00;4871766;29;20052;-81
2023/08/09 07:42:41;;;;;;;0.30;0.30;;;;;;;24.67;51.24;98834.84;4872070;29;20152;-81
2023/08/09 07:45:09;;;;;;;0.30;0.30;;;;;;;24.58;51.46;98832.97;4888549;29;20086;-82
2023/08/09 07:47:39;;;;;;;0.30;0.30;;;;;;;24.68;50.92;98841.97;4880024;29;20420;-82
2023/08/09 07:50:07;;;;;;;0.30;0.30;;;;;;;24.63;50.97;98835.50;4882982;29;20140;-82
2023/08/09 07:52:35;;;;;;;0.30;0.30;;;;;;;24.57;51.00;98830.56;4893355;29;20080;-80
2023/08/09 07:55:04;;;;;;;0.20;0.20;;;;;;;24.41;51.27;98833.16;4894538;29;20076;-80
2023/08/09 07:57:33;;;;;;;0.20;0.20;;;;;;;24.44;51.51;98836.03;4876068;29;20075;-81
2023/08/09 08:00:14;;;;;;;0.28;0.28;;;;;;;24.62;51.64;98831.16;4885158;29;20061;-80
2023/08/09 08:02:45;;;;;;;;;;;;;;;24.38;50.82;98831.06;4862832;29;20476;-81
2023/08/09 08:05:13;;;;;;;0.30;0.30;;;;;;;24.13;50.67;98825.47;4883826;29;19928;-81
2023/08/09 08:07:41;;;;;;;0.30;0.30;;;;;;;24.00;50.48;98838.41;4885605;29;20186;-82
2023/08/09 08:10:09;;;;;;;0.30;0.30;;;;;;;24.24;50.45;98839.66;4898032;29;20465;-83
2023/08/09 08:12:38;;;;;;;0.30;0.30;;;;;;;24.84;49.27;98845.69;4897235;29;20076;-82
2023/08/09 08:15:06;;;;;;;0.30;0.30;;;;;;;25.01;48.93;98848.22;4886428;29;20049;-83
2023/08/09 08:17:34;;;;;;;0.30;0.30;;;;;;;25.16;48.30;98829.34;4879966;29;20087;-82
2023/08/09 08:20:15;;;;;;;0.30;0.30;;;;;;;25.15;47.90;98827.75;4876462;29;20049;-82
2023/08/09 08:22:44;;;;;;;0.40;0.40;;;;;;;25.58;46.95;98831.88;4876694;29;20057;-82
2023/08/09 08:25:14;;;;;;;0.30;0.30;;;;;;;25.45;46.83;98840.19;4879331;29;20057;-81
2023/08/09 08:27:45;;;;;;;0.30;0.30;;;;;;;25.22;47.56;98850.06;4879846;29;20052;-82
2023/08/09 08:30:14;;;;;;;0.20;0.20;;;;;;;25.05;47.97;98857.44;4863066;29;20076;-82
2023/08/09 08:32:41;;;;;;;0.30;0.30;;;;;;;25.11;48.21;98854.44;4879549;29;20068;-83
2023/08/09 08:35:13;;;;;;;0.30;0.30;;;;;;;25.23;48.42;98857.22;4879422;29;20053;-81
2023/08/09 08:37:43;;;;;;;0.20;0.20;;;;;;;25.14;48.10;98873.06;4879646;29;20051;-82
2023/08/09 08:40:21;;;;;;;0.20;0.20;;;;;;;24.77;49.59;98865.56;4879279;29;20093;-83
2023/08/09 08:42:50;;;;;;;0.20;0.20;;;;;;;24.84;48.96;98876.03;4879801;29;20059;-81
2023/08/09 08:45:19;;;;;;;0.20;0.20;;;;;;;24.84;49.04;98878.81;4879353;29;20604;-81
2023/08/09 08:47:47;;;;;;;0.20;0.20;;;;;;;24.91;49.20;98880.97;4879139;29;20492;-81
2023/08/09 08:50:17;;;;;;;0.30;0.30;;;;;;;25.19;48.42;98881.94;4879223;29;20073;-80
2023/08/09 08:52:47;;;;;;;0.40;0.40;;;;;;;25.77;47.27;98881.00;4879286;29;20048;-81
2023/08/09 08:55:15;;;;;;;0.30;0.30;;;;;;;26.25;46.50;98876.50;4862536;29;20052;-81
2023/08/09 08:57:47;;;;;;;0.20;0.20;;;;;;;26.42;46.00;98880.94;4862552;29;20056;-82
2023/08/09 09:00:18;;;;;;;0.30;0.30;;;;;;;26.33;45.33;98884.66;4878921;29;20512;-81
2023/08/09 09:02:49;;;;;;;0.30;0.30;;;;;;;26.62;45.27;98884.66;4862363;29;20523;-82
2023/08/09 09:05:19;;;;;;;0.20;0.20;;;;;;;26.73;44.66;98896.81;4879191;29;20053;-80
2023/08/09 09:07:50;;;;;;;0.30;0.30;;;;;;;26.87;44.42;98902.72;4878914;29;20532;-81
2023/08/09 09:10:20;;;;;;;0.30;0.30;;;;;;;27.51;43.39;98902.75;4878942;29;20512;-81
2023/08/09 09:12:50;;;;;;;0.20;0.20;;;;;;;26.99;43.60;98904.59;4862821;29;20084;-82
2023/08/09 09:15:18;;;;;;;0.20;0.20;;;;;;;27.05;44.36;98899.63;4879111;29;20527;-80
2023/08/09 09:17:46;;;;;;;0.20;0.20;;;;;;;27.04;44.62;98898.78;4879056;29;20041;-81
2023/08/09 09:20:21;;;;;;;0.20;0.20;;;;;;;26.90;44.00;98907.56;4862324;29;20080;-81
2023/08/09 09:22:48;;;;;;;0.20;0.20;;;;;;;26.58;44.65;98901.16;4878783;29;20060;-83
2023/08/09 09:25:17;;;;;;;0.20;0.20;;;;;;;26.87;44.59;98904.69;4878877;29;20560;-81
2023/08/09 09:27:50;;;;;;;0.30;0.30;;;;;;;27.25;43.41;98900.53;4879116;29;20052;-81
2023/08/09 09:30:23;;;;;;;0.20;0.20;;;;;;;27.05;43.35;98905.16;4879061;29;20067;-83
2023/08/09 09:32:54;;;;;;;0.20;0.20;;;;;;;26.47;44.62;98911.09;4878573;29;20053;-82
2023/08/09 09:35:26;;;;;;;0.20;0.20;;;;;;;25.98;45.19;98902.97;4862195;29;20260;-81
2023/08/09 09:38:04;;;;;;;0.20;0.20;;;;;;;25.50;45.77;98892.44;4878291;29;20581;-80
2023/08/09 09:40:31;;;;;;;0.20;0.20;;;;;;;25.12;46.70;98905.72;4878753;29;20057;-82
2023/08/09 09:43:05;;;;;;;0.20;0.20;;;;;;;25.03;47.03;98901.13;4878176;29;20060;-81
2023/08/09 09:45:33;;;;;;;0.20;0.20;;;;;;;25.04;47.22;98901.94;4878183;29;20068;-81
2023/08/09 09:48:04;;;;;;;0.20;0.20;;;;;;;25.01;47.78;98908.94;4877713;29;20069;-82
2023/08/09 09:50:31;;;;;;;0.20;0.20;;;;;;;25.08;47.95;98906.44;4878033;29;20053;-83
2023/08/09 09:52:59;;;;;;;0.20;0.20;;;;;;;25.41;46.68;98913.84;4877895;29;20072;-83
2023/08/09 09:55:28;;;;;;;0.50;0.50;;;;;;;27.47;42.88;98908.19;4861573;29;20149;-80
2023/08/09 09:57:58;;;;;;;0.50;0.50;;;;;;;28.45;40.81;98898.09;4878280;29;20129;-82
2023/08/09 10:00:31;;;;;;;0.20;0.20;;;;;;;28.29;41.40;98898.94;4881749;29;20093;-80
2023/08/09 10:03:09;;;;;;;0.20;0.20;;;;;;;27.99;41.56;98901.47;4881250;29;20067;-81
2023/08/09 10:05:37;;;;;;;0.20;0.20;;;;;;;27.96;41.78;98902.22;4863074;29;20398;-82
2023/08/09 10:08:07;;;;;;;0.20;0.20;;;;;;;27.37;41.84;98898.47;4878063;29;20049;-82
2023/08/09 10:10:42;;;;;;;0.20;0.20;;;;;;;26.71;43.52;98907.44;4878203;29;20060;-81
2023/08/09 10:13:13;;;;;;;0.20;0.20;;;;;;;26.30;43.90;98910.22;4861308;29;20072;-82
2023/08/09 10:15:43;;;;;;;0.20;0.20;;;;;;;25.82;45.43;98919.44;4861305;29;20049;-81
2023/08/09 10:18:35;;;;;;;0.10;0.10;;;;;;;25.47;46.06;98922.69;4876366;29;20541;-81
2023/08/09 10:21:03;;;;;;;0.20;0.20;;;;;;;24.91;47.03;98920.44;4860753;29;20108;-81
2023/08/09 10:23:36;;;;;;;0.20;0.20;;;;;;;24.48;47.56;98929.16;4876508;29;20061;-82
2023/08/09 10:26:03;;;;;;;0.20;0.20;;;;;;;24.23;47.71;98929.84;4877651;29;20053;-81
2023/08/09 10:28:44;;;;;;;0.10;0.10;;;;;;;24.22;48.81;98938.44;4877441;29;20470;-82
2023/08/09 10:31:15;;;;;;;0.20;0.20;;;;;;;24.27;48.67;98940.97;4877288;29;20045;-80
2023/08/09 10:34:07;;;;;;;0.10;0.10;;;;;;;24.20;48.82;98938.75;4877554;29;20068;-82
2023/08/09 10:36:34;;;;;;;0.10;0.10;;;;;;;24.02;49.04;98942.78;4877482;29;20056;-81
2023/08/09 10:39:15;;;;;;;0.10;0.10;;;;;;;23.88;49.76;98945.03;4877010;29;20112;-81
2023/08/09 10:42:00;;;;;;;0.20;0.20;;;;;;;23.90;49.54;98950.97;4877394;29;20057;-81
2023/08/09 10:44:33;;;;;;;0.20;0.20;;;;;;;23.84;50.92;98944.84;4877207;29;20053;-82
2023/08/09 10:47:23;;;;;;;0.20;0.20;;;;;;;23.88;51.11;98945.03;4876594;29;20052;-81
2023/08/09 10:49:53;;;;;;;0.20;0.20;;;;;;;24.05;51.19;98939.34;4877295;29;20053;-81
2023/08/09 10:52:32;;;;;;;0.30;0.30;;;;;;;24.46;50.34;98932.25;4877634;29;20147;-81
2023/08/09 10:55:18;;;;;;;0.30;0.30;;;;;;;24.76;49.42;98930.16;4860755;29;20572;-81
2023/08/09 10:57:48;;;;;;;0.30;0.30;;;;;;;24.99;49.07;98927.00;4877310;29;20060;-81
2023/08/09 11:00:18;;;;;;;0.50;0.50;;;;;;;26.20;46.90;98930.09;4845099;29;20048;-81
2023/08/09 11:02:57;;;;;;;0.30;0.30;;;;;;;26.40;46.20;98933.03;4861729;29;20065;-81
2023/08/09 11:05:27;;;;;;;0.30;0.30;;;;;;;26.31;46.26;98935.97;4877123;29;20057;-81
2023/08/09 11:07:56;;;;;;;0.20;0.20;;;;;;;26.06;46.51;98935.22;4877006;29;20048;-80
2023/08/09 11:10:32;;;;;;;0.20;0.20;;;;;;;25.71;46.82;98936.50;4876800;29;20061;-81
2023/08/09 11:13:05;;;;;;;0.30;0.30;;;;;;;25.86;46.65;98929.50;4876830;29;20053;-81
2023/08/09 11:15:33;;;;;;;0.30;0.30;;;;;;;27.73;42.75;98909.59;4860471;29;20151;-81
2023/08/09 11:18:01;;;;;;;0.60;0.60;;;;;;;28.17;41.45;98896.31;4876804;29;20508;-80
2023/08/09 11:20:29;;;;;;;0.40;0.40;;;;;;;29.25;39.12;98890.03;4882945;29;20049;-81
2023/08/09 11:23:03;;;;;;;0.40;0.40;;;;;;;29.43;38.51;98901.44;4674995;29;10000397;-82
2023/08/09 11:25:34;;;;;;;0.50;0.50;;;;;;;30.14;37.33;98893.31;4885596;29;20278;-81
2023/08/09 11:28:04;;;;;;;0.40;0.40;;;;;;;30.35;36.71;98892.78;4852987;29;20324;-81
2023/08/09 11:30:32;;;;;;;0.40;0.40;;;;;;;30.38;36.70;98892.81;4885990;29;20128;-80
2023/08/09 11:33:04;;;;;;;0.40;0.40;;;;;;;30.93;36.31;98889.44;4888263;29;20617;-80
2023/08/09 11:35:39;;;;;;;0.40;0.40;;;;;;;31.73;34.92;98892.47;4874252;29;20062;-81
2023/08/09 11:38:12;;;;;;;0.40;0.40;;;;;;;31.40;35.13;98893.47;4891288;29;20400;-81
2023/08/09 11:40:41;;;;;;;0.40;0.40;;;;;;;31.19;35.37;98890.47;4890487;29;20056;-80
2023/08/09 11:43:16;;;;;;;0.40;0.40;;;;;;;31.28;35.23;98888.16;4887907;29;20121;-80
2023/08/09 11:45:48;;;;;;;0.40;0.40;;;;;;;31.77;34.07;98872.97;4882742;29;20154;-80